Time;durP1;ratioP1;P1;durP2;ratioP2;P2;SDS_P1;SDS_P2;PMS_P1;PMS_P2;Temp;Humidity;BMP_temperature;BMP_pressure;BME280_temperature;BME280_humidity;BME280_pressure;Samples;Min_cycle;Max_cycle;Signal;HPM_P1;HPM_P2
2022/04/20 00:00:05;;;;;;;9.67;8.57;;;;;;;0.67;89.73;97537.56;6155099;28;20699;-80
2022/04/20 00:03:10;;;;;;;9.77;8.47;;;;;;;0.57;89.48;97540.59;6156045;28;20233;-80
2022/04/20 00:06:13;;;;;;;10.30;9.23;;;;;;;0.51;89.60;97549.47;6155441;28;20222;-80
2022/04/20 00:09:15;;;;;;;14.57;11.53;;;;;;;0.50;89.77;97542.59;6154442;28;20240;-80
2022/04/20 00:12:17;;;;;;;13.97;11.77;;;;;;;0.57;89.74;97554.44;6155715;28;20244;-81
2022/04/20 00:15:19;;;;;;;11.87;10.60;;;;;;;0.61;89.70;97557.72;6153906;28;20214;-80
2022/04/20 00:18:21;;;;;;;12.57;11.23;;;;;;;0.62;89.19;97562.84;6138700;28;20245;-80
2022/04/20 00:21:23;;;;;;;14.70;12.00;;;;;;;0.63;89.44;97563.69;6154309;28;20241;-80
2022/04/20 00:24:25;;;;;;;14.50;12.47;;;;;;;0.66;89.41;97563.56;6147324;28;20316;-80
2022/04/20 00:27:31;;;;;;;14.73;11.83;;;;;;;0.68;89.87;97557.41;6166067;28;20245;-80
2022/04/20 00:30:33;;;;;;;16.13;12.77;;;;;;;0.72;90.24;97561.56;6155520;28;20261;-80
2022/04/20 00:33:35;;;;;;;13.57;12.13;;;;;;;0.74;90.22;97564.09;6154166;28;20272;-80
2022/04/20 00:36:38;;;;;;;15.20;13.60;;;;;;;0.81;90.46;97562.06;6152851;28;20309;-80
2022/04/20 00:39:40;;;;;;;17.67;14.33;;;;;;;0.91;90.78;97569.38;6138635;28;20225;-80
2022/04/20 00:42:42;;;;;;;18.03;14.33;;;;;;;0.98;90.61;97562.19;6154480;28;20238;-80
2022/04/20 00:45:45;;;;;;;20.47;14.23;;;;;;;1.06;91.09;97558.34;6154450;28;20229;-80
2022/04/20 00:48:48;;;;;;;17.50;14.40;;;;;;;1.13;91.44;97568.44;6174663;28;20229;-80
2022/04/20 00:51:52;;;;;;;21.17;14.77;;;;;;;1.13;91.04;97571.03;6152664;28;20672;-81
2022/04/20 00:54:55;;;;;;;19.17;14.43;;;;;;;1.12;91.49;97562.41;6154294;28;20237;-80
2022/04/20 00:57:57;;;;;;;18.97;15.60;;;;;;;1.13;91.45;97563.25;6152698;28;20633;-80
2022/04/20 01:01:01;;;;;;;19.67;15.60;;;;;;;1.13;91.79;97569.28;6153655;28;20312;-81
2022/04/20 01:04:04;;;;;;;17.47;14.30;;;;;;;1.16;91.49;97569.16;6154381;28;21414;-80
2022/04/20 01:07:39;;;;;;;18.57;15.57;;;;;;;1.25;91.87;97571.34;6141827;28;20277;-80
2022/04/20 01:10:54;;;;;;;20.00;14.93;;;;;;;1.27;92.08;97564.34;6159410;28;20228;-80
2022/04/20 01:14:18;;;;;;;14.97;13.03;;;;;;;1.24;91.90;97566.22;6159369;28;20777;-80
2022/04/20 01:17:43;;;;;;;15.27;12.93;;;;;;;1.21;91.72;97564.59;6166471;28;20242;-80
2022/04/20 01:21:11;;;;;;;16.97;13.40;;;;;;;1.15;92.20;97571.81;6135148;28;20234;-80
2022/04/20 01:24:36;;;;;;;16.30;14.03;;;;;;;1.07;91.83;97566.97;6149918;28;20234;-80
2022/04/20 01:28:02;;;;;;;15.43;12.83;;;;;;;0.97;91.60;97574.34;6167038;28;20233;-80
2022/04/20 01:31:37;;;;;;;14.73;12.13;;;;;;;0.92;92.33;97568.47;6169014;28;20225;-80
2022/04/20 01:34:46;;;;;;;14.33;11.67;;;;;;;0.92;91.79;97573.69;6157518;28;20226;-80
2022/04/20 01:37:51;;;;;;;17.00;13.43;;;;;;;0.88;92.24;97571.28;6157778;28;20229;-80
2022/04/20 01:40:53;;;;;;;13.53;11.30;;;;;;;0.81;91.94;97575.03;6160498;28;20312;-80
2022/04/20 01:43:56;;;;;;;12.67;10.90;;;;;;;0.74;92.40;97583.13;6157103;28;20244;-80
2022/04/20 01:47:14;;;;;;;14.97;12.07;;;;;;;0.68;92.56;97573.00;6159969;28;20277;-80
2022/04/20 01:50:27;;;;;;;12.33;10.23;;;;;;;0.67;92.79;97573.91;6143145;28;20245;-80
2022/04/20 01:53:52;;;;;;;14.13;11.13;;;;;;;0.60;92.06;97572.47;6157598;28;20234;-80
2022/04/20 01:57:12;;;;;;;12.00;10.33;;;;;;;0.51;92.61;97575.44;6156790;28;20250;-81
2022/04/20 02:00:34;;;;;;;17.20;10.30;;;;;;;0.45;92.52;97575.72;6156856;28;20365;-80
2022/04/20 02:03:59;;;;;;;14.40;11.00;;;;;;;0.41;92.76;97584.53;6160944;28;20281;-80
2022/04/20 02:07:02;;;;;;;13.60;11.37;;;;;;;0.44;92.66;97581.81;6157648;28;20311;-80
2022/04/20 02:10:10;;;;;;;15.20;12.80;;;;;;;0.50;92.68;97581.53;6157547;28;20230;-80
2022/04/20 02:13:13;;;;;;;17.47;13.77;;;;;;;0.53;92.76;97578.81;6157072;28;20328;-81
2022/04/20 02:16:15;;;;;;;17.80;13.43;;;;;;;0.54;93.23;97577.91;6156575;28;20328;-81
2022/04/20 02:19:43;;;;;;;18.20;14.07;;;;;;;0.57;92.92;97575.22;6156651;28;20228;-80
2022/04/20 02:22:50;;;;;;;19.17;13.70;;;;;;;0.58;92.65;97578.66;6158421;28;20272;-80
2022/04/20 02:25:53;;;;;;;15.53;13.33;;;;;;;0.56;92.67;97573.50;6152486;28;20353;-80
2022/04/20 02:28:56;;;;;;;15.23;13.27;;;;;;;0.54;92.53;97577.91;6153074;28;20324;-80
2022/04/20 02:31:58;;;;;;;18.23;13.00;;;;;;;0.54;92.63;97580.50;6132596;28;20575;-80
2022/04/20 02:35:00;;;;;;;15.73;12.70;;;;;;;0.53;92.99;97578.81;6140402;28;20241;-80
2022/04/20 02:38:06;;;;;;;16.50;12.30;;;;;;;0.49;92.90;97584.22;6156899;28;20248;-80
2022/04/20 02:41:08;;;;;;;14.40;12.10;;;;;;;0.46;92.93;97590.38;6155939;28;20701;-80
2022/04/20 02:44:11;;;;;;;13.77;11.73;;;;;;;0.44;92.61;97586.16;6155393;28;20324;-80
2022/04/20 02:47:15;;;;;;;17.83;14.63;;;;;;;0.51;92.72;97591.03;6155977;28;20233;-81
2022/04/20 02:50:18;;;;;;;20.73;15.17;;;;;;;0.60;92.55;97589.81;6155638;28;20284;-80
2022/04/20 02:53:20;;;;;;;19.53;14.80;;;;;;;0.63;92.60;97585.31;6140479;28;20761;-80
2022/04/20 02:56:22;;;;;;;17.73;13.27;;;;;;;0.62;92.72;97586.22;6155934;28;20243;-80
2022/04/20 02:59:25;;;;;;;17.87;14.50;;;;;;;0.63;92.37;97584.47;6155965;28;20257;-80
2022/04/20 03:02:29;;;;;;;19.73;14.30;;;;;;;0.62;92.50;97591.41;6155885;28;20268;-81
2022/04/20 03:05:31;;;;;;;19.30;14.33;;;;;;;0.66;92.70;97585.19;6155031;28;20233;-80
2022/04/20 03:08:34;;;;;;;21.33;15.67;;;;;;;0.68;92.91;97587.75;6157412;28;20667;-81
2022/04/20 03:11:36;;;;;;;20.17;15.73;;;;;;;0.67;92.63;97586.88;6154992;28;20225;-80
2022/04/20 03:14:38;;;;;;;16.23;13.47;;;;;;;0.63;92.87;97585.31;6139524;28;20229;-80
2022/04/20 03:17:41;;;;;;;16.17;13.30;;;;;;;0.53;92.58;97589.22;6143337;28;20579;-81
2022/04/20 03:20:45;;;;;;;12.57;10.73;;;;;;;0.40;92.65;97587.22;6154861;28;20369;-81
2022/04/20 03:23:47;;;;;;;13.77;11.17;;;;;;;0.30;92.76;97591.94;6156766;28;20376;-80
2022/04/20 03:26:56;;;;;;;15.93;13.67;;;;;;;0.22;92.92;97593.97;6160887;28;20651;-80
2022/04/20 03:30:12;;;;;;;14.40;11.87;;;;;;;0.22;92.90;97588.78;6141862;28;20325;-80
2022/04/20 03:33:15;;;;;;;13.67;11.77;;;;;;;0.19;92.97;97587.19;6139080;28;20276;-82
2022/04/20 03:36:17;;;;;;;15.90;12.77;;;;;;;0.17;92.94;97591.56;6157672;28;20666;-80
2022/04/20 03:39:21;;;;;;;13.47;10.80;;;;;;;0.15;92.93;97587.34;6157969;28;20232;-81
2022/04/20 03:42:23;;;;;;;16.00;12.23;;;;;;;0.12;92.92;97580.53;6158899;28;20292;-80
2022/04/20 03:45:25;;;;;;;16.03;12.10;;;;;;;0.09;93.20;97572.88;6157007;28;20813;-82
2022/04/20 03:48:28;;;;;;;14.57;11.63;;;;;;;0.09;93.26;97577.22;6157324;28;20233;-81
2022/04/20 03:51:30;;;;;;;14.23;11.70;;;;;;;0.05;93.51;97576.50;6156898;28;20308;-81
2022/04/20 03:54:34;;;;;;;17.20;13.00;;;;;;;0.02;93.35;97583.53;6154631;28;20233;-80
2022/04/20 03:57:38;;;;;;;13.80;11.57;;;;;;;-0.04;93.24;97574.28;6138204;28;20257;-80
2022/04/20 04:00:41;;;;;;;13.77;11.40;;;;;;;-0.06;93.61;97570.88;6154310;28;20237;-80
2022/04/20 04:03:43;;;;;;;15.57;12.10;;;;;;;-0.08;93.35;97580.47;6153511;28;20226;-80
2022/04/20 04:06:50;;;;;;;14.77;11.53;;;;;;;-0.12;93.30;97574.59;6154455;28;20229;-80
2022/04/20 04:09:55;;;;;;;15.90;12.30;;;;;;;-0.13;93.44;97579.81;6138597;28;20238;-80
2022/04/20 04:12:57;;;;;;;15.23;12.53;;;;;;;-0.16;93.56;97572.16;6154702;28;20225;-80
2022/04/20 04:16:01;;;;;;;16.37;12.47;;;;;;;-0.19;93.42;97583.50;6153962;28;20593;-80
2022/04/20 04:19:05;;;;;;;15.70;12.30;;;;;;;-0.22;93.16;97581.03;6137430;28;20241;-80
2022/04/20 04:22:07;;;;;;;17.10;14.43;;;;;;;-0.23;93.36;97581.94;6154350;28;20238;-80
2022/04/20 04:25:13;;;;;;;17.07;12.90;;;;;;;-0.27;93.64;97575.16;6160322;28;20233;-81
2022/04/20 04:28:18;;;;;;;17.53;13.00;;;;;;;-0.29;93.33;97582.16;6170015;28;20237;-80
2022/04/20 04:31:21;;;;;;;17.10;13.50;;;;;;;-0.31;93.27;97571.03;6154041;28;20245;-80
2022/04/20 04:34:27;;;;;;;17.83;13.43;;;;;;;-0.29;93.02;97574.38;6137757;28;20365;-81
2022/04/20 04:37:35;;;;;;;16.93;13.20;;;;;;;-0.30;93.34;97583.06;6153715;28;20249;-80
2022/04/20 04:40:41;;;;;;;18.53;14.63;;;;;;;-0.26;93.46;97581.19;6130091;28;20252;-80
2022/04/20 04:43:43;;;;;;;17.37;13.73;;;;;;;-0.25;93.41;97585.50;6160682;28;20710;-80
2022/04/20 04:50:16;;;;;;;16.50;13.23;;;;;;;-0.16;93.66;97590.31;6159251;28;20680;-80
2022/04/20 04:53:18;;;;;;;20.57;15.23;;;;;;;-0.11;93.09;97593.59;6141768;28;20234;-81
2022/04/20 04:56:21;;;;;;;23.70;18.60;;;;;;;0.06;93.69;97592.91;6159076;28;20365;-81
2022/04/20 04:59:24;;;;;;;25.20;19.10;;;;;;;0.20;93.12;97585.44;6158251;28;20868;-80
2022/04/20 05:02:29;;;;;;;25.57;18.07;;;;;;;0.25;93.00;97588.66;6158004;28;20248;-80
2022/04/20 05:05:31;;;;;;;27.83;18.30;;;;;;;0.32;92.87;97590.09;6158597;28;20770;-81
2022/04/20 05:08:33;;;;;;;26.47;18.83;;;;;;;0.36;93.15;97589.06;6142206;28;20233;-81
2022/04/20 05:11:35;;;;;;;26.40;19.93;;;;;;;0.43;93.00;97592.25;6134030;28;20234;-80
2022/04/20 05:14:39;;;;;;;26.23;19.77;;;;;;;0.53;93.38;97596.16;6162450;28;20710;-81
2022/04/20 05:17:41;;;;;;;27.67;19.50;;;;;;;0.54;93.31;97596.09;6174987;28;20245;-81
2022/04/20 05:20:44;;;;;;;27.60;19.50;;;;;;;0.60;93.21;97595.81;6157683;28;20256;-81
2022/04/20 05:23:49;;;;;;;25.63;18.67;;;;;;;0.64;93.18;97596.56;6139249;28;20243;-80
2022/04/20 05:26:52;;;;;;;27.23;19.87;;;;;;;0.71;92.97;97597.97;6168584;28;20229;-80
2022/04/20 05:29:55;;;;;;;23.70;17.93;;;;;;;0.76;93.11;97596.03;6157709;28;20225;-80
2022/04/20 05:32:59;;;;;;;29.00;20.53;;;;;;;0.85;93.20;97600.00;6141852;28;20237;-80
2022/04/20 05:36:03;;;;;;;29.47;22.07;;;;;;;1.06;93.57;97596.47;6133043;28;20245;-80
2022/04/20 05:42:29;;;;;;;33.80;24.40;;;;;;;1.35;93.38;97592.56;6158678;28;20229;-81
2022/04/20 05:45:31;;;;;;;29.67;23.07;;;;;;;1.52;93.39;97592.66;6141044;28;20307;-81
2022/04/20 05:48:50;;;;;;;34.10;23.33;;;;;;;1.64;93.38;97586.88;6157120;28;20235;-80
2022/04/20 05:51:52;;;;;;;30.37;22.77;;;;;;;1.81;93.09;97591.31;6158759;28;20225;-80
2022/04/20 05:54:55;;;;;;;31.73;22.27;;;;;;;1.92;93.03;97588.19;6139589;28;20236;-81
2022/04/20 05:57:58;;;;;;;28.43;21.80;;;;;;;2.01;93.42;97592.97;6140938;28;20741;-81
2022/04/20 06:01:00;;;;;;;25.43;20.03;;;;;;;2.10;92.55;97580.34;6156955;28;20242;-80
2022/04/20 06:04:31;;;;;;;24.57;19.03;;;;;;;2.27;92.47;97587.38;6153730;28;20241;-80
2022/04/20 06:07:36;;;;;;;24.70;19.00;;;;;;;2.31;91.97;97588.03;6159022;28;20238;-80
2022/04/20 06:11:00;;;;;;;20.07;17.27;;;;;;;2.37;91.53;97588.59;6158835;28;20230;-80
2022/04/20 06:14:03;;;;;;;19.30;16.07;;;;;;;2.45;91.35;97588.22;6142552;28;20670;-81
2022/04/20 06:17:14;;;;;;;18.43;16.13;;;;;;;2.53;90.81;97594.72;6158199;28;20241;-80
2022/04/20 06:20:23;;;;;;;17.87;15.83;;;;;;;2.66;90.78;97597.56;6158393;28;20236;-80
2022/04/20 06:23:54;;;;;;;17.33;15.53;;;;;;;2.80;89.48;97597.72;6172099;28;20235;-81
2022/04/20 06:27:15;;;;;;;17.17;14.83;;;;;;;2.95;88.63;97601.31;6159021;28;20249;-80
2022/04/20 06:30:40;;;;;;;17.37;15.30;;;;;;;3.07;87.79;97598.09;6156684;28;20241;-80
2022/04/20 06:33:59;;;;;;;15.90;14.23;;;;;;;3.19;86.58;97597.47;6157505;28;20228;-80
2022/04/20 06:37:27;;;;;;;16.43;13.97;;;;;;;3.28;86.28;97598.72;6163751;28;20310;-80
2022/04/20 06:40:50;;;;;;;16.17;13.57;;;;;;;3.34;85.83;97598.41;6157716;28;20726;-81
2022/04/20 06:44:03;;;;;;;16.70;13.80;;;;;;;3.44;86.44;97588.31;6157853;28;20241;-80
2022/04/20 06:47:13;;;;;;;15.83;14.00;;;;;;;3.57;86.21;97579.78;6155629;28;20243;-81
2022/04/20 06:50:41;;;;;;;14.20;12.70;;;;;;;3.76;85.13;97587.44;6143033;28;20246;-80
2022/04/20 07:00:35;;;;;;;11.60;10.50;;;;;;;4.34;81.83;97582.41;6154581;28;20616;-81
2022/04/20 07:03:42;;;;;;;14.00;12.23;;;;;;;4.58;80.04;97581.94;6141164;28;20239;-81
2022/04/20 07:06:56;;;;;;;12.80;11.50;;;;;;;4.99;78.83;97576.91;6154954;28;20236;-80
2022/04/20 07:10:10;;;;;;;11.30;10.10;;;;;;;5.42;78.31;97577.75;6155244;28;20323;-81
2022/04/20 07:13:19;;;;;;;13.33;10.93;;;;;;;5.47;76.23;97570.47;6139082;28;20742;-81
2022/04/20 07:16:23;;;;;;;11.43;10.23;;;;;;;5.72;75.96;97578.47;6155214;28;20283;-80
2022/04/20 07:19:44;;;;;;;11.47;10.10;;;;;;;6.22;74.95;97572.69;6132045;28;20234;-81
2022/04/20 07:23:14;;;;;;;9.87;8.87;;;;;;;6.29;75.17;97573.97;6137458;28;20247;-81
2022/04/20 07:26:28;;;;;;;10.33;9.33;;;;;;;6.35;75.63;97580.59;6170020;28;20235;-81
2022/04/20 07:29:46;;;;;;;10.70;9.47;;;;;;;6.30;73.91;97588.75;6131698;28;20265;-81
2022/04/20 07:33:08;;;;;;;10.97;9.13;;;;;;;6.12;73.66;97589.09;6143486;28;20361;-82
2022/04/20 07:36:49;;;;;;;11.13;10.03;;;;;;;6.37;73.94;97583.13;6094983;29;20341;-81
2022/04/20 07:40:15;;;;;;;11.10;9.83;;;;;;;7.12;69.68;97582.44;6116395;28;20243;-81
2022/04/20 07:43:37;;;;;;;10.50;9.33;;;;;;;7.77;69.05;97583.13;6131959;28;20325;-81
2022/04/20 07:47:05;;;;;;;8.60;7.63;;;;;;;8.17;67.48;97572.41;6117673;28;20237;-81
2022/04/20 07:50:25;;;;;;;11.10;8.47;;;;;;;8.77;64.29;97579.41;6141454;28;20247;-81
2022/04/20 07:53:53;;;;;;;11.23;8.93;;;;;;;8.47;62.96;97590.41;6124217;28;20234;-81
2022/04/20 07:56:55;;;;;;;8.50;7.70;;;;;;;7.76;65.84;97585.84;6153641;28;20321;-81
2022/04/20 08:00:17;;;;;;;8.83;7.93;;;;;;;7.28;66.11;97585.69;6154182;28;20720;-81
2022/04/20 08:03:39;;;;;;;9.00;8.10;;;;;;;7.63;65.04;97582.41;6154663;28;20237;-82
2022/04/20 08:06:43;;;;;;;8.97;8.07;;;;;;;8.25;64.54;97575.31;6154005;28;20250;-81
2022/04/20 08:09:45;;;;;;;8.87;7.97;;;;;;;8.60;62.53;97580.63;6153884;28;20695;-82
2022/04/20 08:12:48;;;;;;;8.00;7.20;;;;;;;8.64;64.11;97581.25;6154601;28;20323;-81
2022/04/20 08:15:56;;;;;;;9.80;7.73;;;;;;;8.81;60.06;97578.19;6153804;28;20691;-81
2022/04/20 08:19:07;;;;;;;8.20;7.40;;;;;;;8.86;58.54;97574.28;6153174;28;20731;-81
2022/04/20 08:22:27;;;;;;;7.77;7.03;;;;;;;9.03;59.50;97567.75;6140176;28;20243;-82
2022/04/20 08:25:29;;;;;;;7.80;7.00;;;;;;;9.72;57.60;97567.69;6161063;28;20239;-81
2022/04/20 08:28:31;;;;;;;8.17;7.37;;;;;;;9.88;57.37;97562.88;6153978;28;20326;-82
2022/04/20 08:31:33;;;;;;;8.27;6.67;;;;;;;9.77;56.66;97566.38;6169695;28;20239;-81
2022/04/20 08:34:35;;;;;;;7.50;6.77;;;;;;;10.23;56.66;97554.81;6154672;28;20672;-82
2022/04/20 08:37:57;;;;;;;7.13;6.43;;;;;;;10.75;54.94;97555.81;6140137;28;20234;-82
2022/04/20 08:41:00;;;;;;;7.93;7.13;;;;;;;10.99;55.88;97554.59;6154700;28;20439;-82
2022/04/20 08:44:04;;;;;;;8.10;7.30;;;;;;;10.31;53.56;97555.03;6137261;28;20316;-81
2022/04/20 08:47:14;;;;;;;8.93;7.53;;;;;;;10.61;55.59;97554.31;6153631;28;20228;-81
2022/04/20 08:50:16;;;;;;;7.70;7.00;;;;;;;11.04;54.42;97543.66;6155929;28;20242;-82
2022/04/20 08:53:20;;;;;;;7.23;6.33;;;;;;;11.79;54.53;97538.06;6171902;28;20729;-82
2022/04/20 08:59:51;;;;;;;8.80;7.27;;;;;;;10.83;55.32;97548.09;6154285;28;20319;-83
2022/04/20 09:02:55;;;;;;;7.63;6.63;;;;;;;10.00;56.01;97538.16;6153753;28;20629;-82
2022/04/20 09:06:00;;;;;;;6.73;6.13;;;;;;;9.84;57.13;97540.34;6138467;28;20230;-81
2022/04/20 09:09:02;;;;;;;7.13;6.43;;;;;;;10.75;56.01;97526.78;6113538;28;20366;-81
2022/04/20 09:12:11;;;;;;;7.10;6.50;;;;;;;11.33;50.68;97520.06;6154528;28;20225;-82
2022/04/20 09:15:29;;;;;;;6.23;5.63;;;;;;;11.99;51.72;97521.28;6156621;28;20682;-81
2022/04/20 09:18:31;;;;;;;8.00;7.20;;;;;;;11.93;47.46;97513.06;6144199;28;20292;-81
2022/04/20 09:21:34;;;;;;;7.00;6.30;;;;;;;11.94;48.94;97517.38;6159327;28;20764;-81
2022/04/20 09:24:36;;;;;;;6.17;5.57;;;;;;;12.60;47.87;97502.53;6173531;28;20230;-81
2022/04/20 09:27:40;;;;;;;6.47;5.90;;;;;;;12.84;46.62;97515.34;6179489;28;20281;-82
2022/04/20 09:30:43;;;;;;;6.93;6.23;;;;;;;13.23;45.93;97501.09;6153071;28;20246;-82
2022/04/20 09:33:49;;;;;;;6.20;5.50;;;;;;;13.40;44.36;97502.13;6157848;28;20335;-82
2022/04/20 09:36:54;;;;;;;6.30;5.40;;;;;;;13.01;42.78;97511.97;6156873;28;20227;-81
2022/04/20 09:39:57;;;;;;;6.27;5.50;;;;;;;13.00;41.54;97499.72;6157170;28;20241;-81
2022/04/20 09:43:06;;;;;;;5.77;5.17;;;;;;;13.50;42.20;97491.50;6152250;28;20229;-81
2022/04/20 09:49:31;;;;;;;5.47;4.47;;;;;;;14.40;40.47;97480.94;6096476;28;20245;-81
2022/04/20 09:52:36;;;;;;;7.53;5.33;;;;;;;14.54;38.21;97480.41;6157168;28;20241;-82
2022/04/20 09:55:40;;;;;;;4.70;4.30;;;;;;;14.65;39.44;97477.53;6141126;28;20354;-81
2022/04/20 09:58:44;;;;;;;5.07;4.57;;;;;;;15.24;37.25;97475.94;6156435;28;20351;-81
2022/04/20 10:01:52;;;;;;;6.53;5.77;;;;;;;13.49;40.82;97479.22;6142671;28;20238;-81
2022/04/20 10:04:55;;;;;;;5.13;4.73;;;;;;;12.37;44.32;97490.59;6157004;28;20237;-82
2022/04/20 10:07:59;;;;;;;6.20;5.10;;;;;;;11.89;45.64;97480.75;6156076;28;20228;-82
2022/04/20 10:11:01;;;;;;;5.87;4.83;;;;;;;11.98;45.91;97484.41;6158117;28;20333;-81
2022/04/20 10:17:25;;;;;;;5.40;4.90;;;;;;;12.51;44.01;97464.50;6156399;28;20727;-81
2022/04/20 10:20:32;;;;;;;5.20;4.70;;;;;;;13.72;40.37;97455.81;6139806;28;20237;-82
2022/04/20 10:23:36;;;;;;;5.00;4.53;;;;;;;14.27;40.19;97453.91;6141382;28;20237;-81
2022/04/20 10:26:39;;;;;;;5.20;4.70;;;;;;;15.36;38.45;97449.91;6169747;28;20241;-81
2022/04/20 10:29:48;;;;;;;6.10;5.50;;;;;;;15.23;38.45;97455.66;6155635;28;20242;-81
2022/04/20 10:32:51;;;;;;;5.37;4.87;;;;;;;14.55;39.14;97454.69;6156272;28;20404;-82
2022/04/20 10:35:59;;;;;;;5.23;4.73;;;;;;;13.62;41.09;97455.84;6155699;28;20677;-82
2022/04/20 10:39:22;;;;;;;4.80;4.40;;;;;;;13.55;42.13;97445.00;6110903;28;20257;-81
2022/04/20 10:42:48;;;;;;;4.97;4.53;;;;;;;12.82;40.96;97448.44;6109016;28;20875;-81
2022/04/20 10:46:09;;;;;;;5.07;4.57;;;;;;;12.88;43.23;97437.28;6093062;28;20333;-81
2022/04/20 10:49:17;;;;;;;5.03;4.23;;;;;;;13.40;40.39;97435.88;6145005;28;20325;-82
2022/04/20 10:52:36;;;;;;;5.10;4.23;;;;;;;13.86;38.85;97434.94;6132927;28;20343;-81
2022/04/20 10:55:46;;;;;;;4.13;3.73;;;;;;;13.52;41.34;97444.47;6146604;28;20273;-82
2022/04/20 10:59:09;;;;;;;6.03;5.47;;;;;;;12.85;39.56;97442.88;6132135;28;20233;-81
2022/04/20 11:02:12;;;;;;;5.00;4.50;;;;;;;12.61;42.00;97437.19;6147860;28;20628;-81
2022/04/20 11:05:15;;;;;;;5.30;4.80;;;;;;;12.75;42.13;97439.41;6138972;28;20272;-81
2022/04/20 11:08:17;;;;;;;4.27;3.87;;;;;;;12.96;41.96;97441.88;6171568;28;20257;-81
2022/04/20 11:21:54;;;;;;;4.60;3.87;;;;;;;17.41;31.03;97405.50;6136827;28;20241;-81
2022/04/20 11:25:06;;;;;;;5.33;4.50;;;;;;;17.64;33.33;97403.78;6157206;28;20356;-81
2022/04/20 11:28:08;;;;;;;5.17;4.67;;;;;;;15.81;34.69;97415.03;6156209;28;20234;-81
2022/04/20 11:31:14;;;;;;;4.57;4.17;;;;;;;14.50;37.54;97407.34;6154831;28;20248;-82
2022/04/20 11:34:20;;;;;;;6.50;4.23;;;;;;;14.96;38.60;97403.53;6154240;28;20244;-83
2022/04/20 11:37:24;;;;;;;5.03;4.00;;;;;;;15.14;35.43;97392.81;6156098;28;20238;-82
2022/04/20 11:40:26;;;;;;;4.03;3.63;;;;;;;15.29;35.50;97385.88;6156043;28;20332;-81
2022/04/20 11:43:35;;;;;;;4.27;3.87;;;;;;;16.28;34.62;97380.66;6139130;28;20233;-81
2022/04/20 11:46:46;;;;;;;5.57;4.20;;;;;;;15.70;34.11;97380.75;6154390;28;20230;-81
2022/04/20 11:49:49;;;;;;;4.27;3.87;;;;;;;16.01;34.50;97378.31;6131120;28;20350;-81
2022/04/20 11:52:59;;;;;;;3.47;2.90;;;;;;;15.95;35.95;97379.81;6131973;28;20234;-81
2022/04/20 11:56:45;;;;;;;5.30;2.93;;;;;;;15.77;37.07;97381.78;6158823;28;20254;-81
2022/04/20 11:59:49;;;;;;;3.63;3.33;;;;;;;15.50;36.22;97382.81;6139014;28;20262;-81
2022/04/20 12:02:51;;;;;;;3.53;3.23;;;;;;;15.11;36.08;97374.50;6139047;28;20320;-82
2022/04/20 12:06:03;;;;;;;4.70;4.30;;;;;;;15.73;33.76;97369.78;6154950;28;20855;-81
2022/04/20 12:09:06;;;;;;;3.83;3.50;;;;;;;15.78;32.96;97362.97;6155319;28;20714;-81
2022/04/20 12:12:12;;;;;;;4.97;3.60;;;;;;;16.32;33.55;97355.38;6153812;28;20214;-81
2022/04/20 12:15:20;;;;;;;3.53;3.23;;;;;;;16.96;32.85;97343.00;6137854;28;20203;-81
2022/04/20 12:18:23;;;;;;;3.40;3.10;;;;;;;16.63;33.15;97344.06;6153186;28;20233;-81
2022/04/20 12:21:40;;;;;;;3.47;3.17;;;;;;;16.37;32.87;97345.03;6155496;28;20736;-81
2022/04/20 12:24:43;;;;;;;3.40;3.10;;;;;;;16.07;34.30;97346.53;6157176;28;20241;-83
2022/04/20 12:27:57;;;;;;;4.73;3.00;;;;;;;15.33;35.17;97347.38;6166796;28;20288;-81
2022/04/20 12:31:01;;;;;;;3.07;2.77;;;;;;;15.16;35.09;97342.16;6153900;28;20273;-82
2022/04/20 12:34:05;;;;;;;3.80;3.50;;;;;;;15.30;35.99;97342.34;6158126;28;20226;-81
2022/04/20 12:37:18;;;;;;;3.40;3.10;;;;;;;15.14;35.01;97347.63;6153469;28;20238;-80
2022/04/20 12:40:27;;;;;;;4.37;3.13;;;;;;;14.75;35.67;97349.91;6154802;28;20249;-81
2022/04/20 12:43:33;;;;;;;3.40;3.10;;;;;;;15.25;34.97;97344.69;6153060;28;20241;-82
2022/04/20 12:46:36;;;;;;;3.00;2.80;;;;;;;16.33;34.32;97335.72;6140285;28;20315;-81
2022/04/20 12:49:39;;;;;;;3.87;3.40;;;;;;;17.51;32.46;97324.25;6154644;28;20693;-81
2022/04/20 12:52:49;;;;;;;3.50;3.20;;;;;;;17.96;29.63;97322.66;6139590;28;20726;-81
2022/04/20 13:02:33;;;;;;;3.53;3.17;;;;;;;17.85;29.54;97317.72;6156534;28;20237;-82
2022/04/20 13:05:40;;;;;;;4.00;3.50;;;;;;;18.38;29.36;97317.63;6156264;28;20316;-81
2022/04/20 13:08:45;;;;;;;3.30;2.73;;;;;;;19.06;30.72;97319.31;6142813;28;20700;-82
2022/04/20 13:11:48;;;;;;;3.70;2.70;;;;;;;19.85;28.75;97308.75;6158869;28;20241;-81
2022/04/20 13:14:50;;;;;;;4.03;3.00;;;;;;;20.15;28.82;97302.25;6157666;28;20316;-82
2022/04/20 13:17:52;;;;;;;2.87;2.57;;;;;;;20.18;28.49;97299.16;6141937;28;20760;-81
2022/04/20 13:20:55;;;;;;;2.50;2.30;;;;;;;21.03;29.29;97298.16;6141808;28;20369;-82
2022/04/20 13:23:57;;;;;;;2.90;2.60;;;;;;;;;;6134687;28;20611;-82
2022/04/20 13:30:27;;;;;;;3.87;2.33;;;;;;;19.42;28.72;97305.97;6136075;28;20266;-82
2022/04/20 13:33:29;;;;;;;3.10;2.80;;;;;;;18.85;28.96;97307.69;6157805;28;20724;-82
2022/04/20 13:36:31;;;;;;;4.00;3.70;;;;;;;18.23;29.93;97306.06;6157205;28;20226;-82
2022/04/20 13:39:33;;;;;;;3.33;3.03;;;;;;;17.88;30.13;97296.84;6141666;28;20233;-82
2022/04/20 13:42:35;;;;;;;3.33;3.00;;;;;;;17.75;29.97;97288.59;6157380;28;20232;-82
2022/04/20 13:45:38;;;;;;;4.67;3.80;;;;;;;16.91;29.64;97295.50;6159033;28;20218;-81
2022/04/20 13:48:41;;;;;;;3.57;3.27;;;;;;;15.78;31.98;97304.44;6157862;28;20226;-81
2022/04/20 13:51:43;;;;;;;5.83;3.73;;;;;;;15.41;32.99;97314.63;6158157;28;20582;-82
2022/04/20 13:54:45;;;;;;;5.23;3.67;;;;;;;15.23;33.81;97313.94;6142167;28;20229;-81
2022/04/20 13:57:47;;;;;;;5.87;4.33;;;;;;;15.28;33.81;97308.94;6157900;28;20600;-81
2022/04/20 14:00:50;;;;;;;4.50;3.93;;;;;;;15.21;34.38;97307.94;6141068;28;20271;-81
2022/04/20 14:03:53;;;;;;;3.40;3.10;;;;;;;15.26;35.06;97303.81;6156401;28;20232;-81
2022/04/20 14:06:55;;;;;;;4.47;3.97;;;;;;;15.62;34.68;97303.59;6157574;28;20479;-81
2022/04/20 14:09:57;;;;;;;5.13;4.63;;;;;;;15.43;33.76;97304.69;6156689;28;20233;-82
2022/04/20 14:12:59;;;;;;;4.60;4.20;;;;;;;15.03;34.14;97305.38;6157492;28;20377;-81
2022/04/20 14:16:01;;;;;;;5.47;4.50;;;;;;;14.71;33.93;97304.22;6156149;28;20312;-81
2022/04/20 14:19:04;;;;;;;4.87;4.33;;;;;;;14.36;34.47;97312.28;6157444;28;20598;-81
2022/04/20 14:22:07;;;;;;;4.60;4.20;;;;;;;14.60;33.94;97296.53;6141243;28;20694;-81
2022/04/20 14:32:12;;;;;;;5.53;4.43;;;;;;;14.44;34.54;97303.56;6155799;28;20384;-81
2022/04/20 14:35:15;;;;;;;5.03;4.63;;;;;;;15.88;32.57;97302.44;6156629;28;20230;-81
2022/04/20 14:38:17;;;;;;;4.83;4.43;;;;;;;15.10;33.56;97301.91;6156178;28;20237;-81
2022/04/20 14:41:19;;;;;;;5.20;4.17;;;;;;;15.42;34.00;97298.53;6156128;28;20234;-81
2022/04/20 14:44:22;;;;;;;4.37;3.80;;;;;;;15.14;34.67;97297.13;6157523;28;20230;-81
2022/04/20 14:47:24;;;;;;;5.13;4.10;;;;;;;14.99;35.00;97299.53;6139330;28;20233;-81
2022/04/20 14:50:27;;;;;;;3.67;3.37;;;;;;;15.05;34.51;97287.44;6156208;28;20697;-80
2022/04/20 14:53:29;;;;;;;4.47;3.50;;;;;;;18.95;29.24;97282.31;6156426;28;20367;-81
2022/04/20 14:56:31;;;;;;;4.33;3.93;;;;;;;23.35;23.03;97275.88;6154899;28;20706;-81
2022/04/20 14:59:33;;;;;;;4.00;3.60;;;;;;;26.42;19.28;97264.09;6157116;28;20274;-81
2022/04/20 15:02:38;;;;;;;4.33;3.53;;;;;;;26.83;18.13;97270.47;6155330;28;20237;-81
2022/04/20 15:05:40;;;;;;;3.80;3.50;;;;;;;26.87;18.13;97263.50;6147448;28;20365;-82
2022/04/20 15:08:43;;;;;;;4.00;3.70;;;;;;;25.87;18.79;97265.34;6155278;28;20252;-81
2022/04/20 15:11:45;;;;;;;3.50;3.20;;;;;;;25.41;19.24;97268.63;6154127;28;20617;-81
2022/04/20 15:14:47;;;;;;;5.13;4.63;;;;;;;22.39;24.27;97276.44;6164198;28;20524;-81
2022/04/20 15:17:50;;;;;;;4.50;4.10;;;;;;;19.15;27.01;97282.59;6170752;28;20375;-82
2022/04/20 15:20:52;;;;;;;4.60;4.20;;;;;;;20.62;26.07;97274.78;6155601;28;20241;-81
2022/04/20 15:24:14;;;;;;;5.80;5.30;;;;;;;23.31;22.14;97271.94;6111705;28;20235;-81
2022/04/20 15:27:17;;;;;;;4.93;4.40;;;;;;;22.88;23.80;97264.41;6125597;28;20305;-81